createdAt,value
2023-07-22T00:03:13.502Z,100199.78
2023-07-22T00:08:14.986Z,100200.22
2023-07-22T00:13:16.355Z,100202.31
2023-07-22T00:18:17.699Z,100204.66
2023-07-22T00:23:19.133Z,100202.22
2023-07-22T00:28:20.599Z,100207.09
2023-07-22T00:33:22.162Z,100204.00
2023-07-22T00:38:23.598Z,100198.59
2023-07-22T00:43:26.799Z,100209.31
2023-07-22T00:48:28.899Z,100207.28
2023-07-22T00:53:30.333Z,100197.28
2023-07-22T00:58:32.068Z,100195.28
2023-07-22T01:03:33.542Z,100205.16
2023-07-22T01:08:34.930Z,100200.34
2023-07-22T01:13:36.290Z,100202.25
2023-07-22T01:18:38.892Z,100203.28
2023-07-22T01:23:40.423Z,100197.91
2023-07-22T01:28:41.773Z,100193.78
2023-07-22T01:33:43.128Z,100187.59
2023-07-22T01:38:44.456Z,100202.31
2023-07-22T01:43:45.806Z,100205.69
2023-07-22T01:48:47.145Z,100201.28
2023-07-22T01:53:49.131Z,100202.16
2023-07-22T01:58:50.557Z,100194.44
2023-07-22T02:03:51.987Z,100195.50
2023-07-22T02:08:53.445Z,100203.03
2023-07-22T02:13:54.806Z,100191.78
2023-07-22T02:18:56.151Z,100202.44
2023-07-22T02:23:57.599Z,100196.59
2023-07-22T02:28:59.142Z,100198.06
2023-07-22T02:34:00.555Z,100198.91
2023-07-22T02:39:01.946Z,100195.78
2023-07-22T02:44:04.666Z,100198.72
2023-07-22T02:49:06.305Z,100194.78
2023-07-22T02:54:07.741Z,100206.44
2023-07-22T02:59:10.660Z,100211.19
2023-07-22T03:04:13.602Z,100212.44
2023-07-22T03:09:14.995Z,100204.75
2023-07-22T03:14:16.390Z,100216.78
2023-07-22T03:19:17.767Z,100218.41
2023-07-22T03:24:19.183Z,100235.59
2023-07-22T03:29:20.557Z,100239.47
2023-07-22T03:34:21.979Z,100238.16
2023-07-22T03:39:23.615Z,100243.75
2023-07-22T03:44:25.551Z,100241.91
2023-07-22T03:49:26.954Z,100247.06
2023-07-22T03:54:28.309Z,100232.78
2023-07-22T03:59:29.777Z,100236.94
2023-07-22T04:04:31.198Z,100235.91
2023-07-22T04:09:32.574Z,100235.72
2023-07-22T04:14:34.194Z,100226.16
2023-07-22T04:19:35.720Z,100220.91
2023-07-22T04:24:37.219Z,100233.19
2023-07-22T04:29:38.641Z,100223.69
2023-07-22T04:34:40.534Z,100232.88
2023-07-22T04:39:41.911Z,100233.53
2023-07-22T04:44:43.397Z,100236.91
2023-07-22T04:49:44.768Z,100244.81
2023-07-22T04:54:48.517Z,100244.00
2023-07-22T04:59:49.912Z,100244.69
2023-07-22T05:04:51.264Z,100241.38
2023-07-22T05:09:52.784Z,100246.38
2023-07-22T05:14:54.169Z,100238.91
2023-07-22T05:19:55.519Z,100245.78
2023-07-22T05:24:57.449Z,100236.00
2023-07-22T05:29:58.890Z,100239.72
2023-07-22T05:35:00.330Z,100245.53
2023-07-22T05:40:02.710Z,100244.69
2023-07-22T05:45:04.733Z,100251.34
2023-07-22T05:50:07.577Z,100248.22
2023-07-22T05:55:09.136Z,100251.72
2023-07-22T06:00:13.908Z,100245.81
2023-07-22T06:05:15.541Z,100254.06
2023-07-22T06:10:16.976Z,100256.00
2023-07-22T06:15:18.591Z,100264.28
2023-07-22T06:20:19.981Z,100263.28
2023-07-22T06:25:21.619Z,100263.19
2023-07-22T06:30:23.207Z,100258.41
2023-07-22T06:35:24.584Z,100257.41
2023-07-22T06:40:26.391Z,100258.25
2023-07-22T06:45:28.312Z,100268.50
2023-07-22T06:50:29.690Z,100271.44
2023-07-22T06:55:31.827Z,100275.38
2023-07-22T07:00:33.256Z,100267.97
2023-07-22T07:05:35.919Z,100272.41
2023-07-22T07:10:40.015Z,100269.81
2023-07-22T07:15:41.681Z,100262.34
2023-07-22T07:20:43.579Z,100268.94
2023-07-22T07:25:45.608Z,100266.31
2023-07-22T07:30:46.997Z,100266.31
2023-07-22T07:35:48.470Z,100259.59
2023-07-22T07:40:58.246Z,100263.47
2023-07-22T07:46:22.970Z,100264.47
2023-07-22T07:51:27.508Z,100266.81
2023-07-22T07:56:30.204Z,100268.38
2023-07-22T08:01:31.944Z,100260.59
2023-07-22T08:06:34.094Z,100259.72
2023-07-22T08:11:35.477Z,100260.34
2023-07-22T08:16:36.990Z,100261.09
2023-07-22T08:21:39.454Z,100258.53
2023-07-22T08:26:40.837Z,100262.38
2023-07-22T08:31:45.249Z,100251.84
2023-07-22T08:36:46.659Z,100250.03
2023-07-22T08:41:51.281Z,100246.84
2023-07-22T08:46:57.083Z,100249.78
2023-07-22T08:51:59.224Z,100249.16
2023-07-22T08:57:00.728Z,100254.50
2023-07-22T09:02:02.489Z,100233.56
2023-07-22T09:07:04.245Z,100252.81
2023-07-22T09:12:07.148Z,100247.25
2023-07-22T09:17:08.548Z,100235.53
2023-07-22T09:22:10.402Z,100229.94
2023-07-22T09:27:11.761Z,100225.13
2023-07-22T09:32:13.164Z,100233.22
2023-07-22T09:37:14.563Z,100214.38
2023-07-22T09:42:25.582Z,100210.31
2023-07-22T09:47:27.277Z,100206.91
2023-07-22T09:52:30.021Z,100210.91
2023-07-22T09:57:34.090Z,100201.06
2023-07-22T10:02:37.037Z,100195.81
2023-07-22T10:07:40.286Z,100198.88
2023-07-22T10:12:42.996Z,100186.75
2023-07-22T10:17:45.603Z,100188.97
2023-07-22T10:22:48.547Z,100184.56
2023-07-22T10:27:53.244Z,100172.81
2023-07-22T10:32:55.316Z,100171.44
2023-07-22T10:37:57.349Z,100168.66
2023-07-22T10:43:06.963Z,100157.41
2023-07-22T10:48:13.894Z,100156.75
2023-07-22T10:53:21.198Z,100148.16
2023-07-22T10:58:24.721Z,100141.22
2023-07-22T11:03:26.137Z,100143.13
2023-07-22T11:08:38.888Z,100133.59
2023-07-22T11:13:42.025Z,100134.44
2023-07-22T11:18:43.509Z,100138.06
2023-07-22T11:23:44.977Z,100128.38
2023-07-22T11:28:47.699Z,100124.09
2023-07-22T11:33:49.419Z,100124.75
2023-07-22T11:38:51.138Z,100124.50
2023-07-22T11:43:52.732Z,100120.94
2023-07-22T11:48:55.696Z,100127.91
2023-07-22T11:53:57.091Z,100110.84
2023-07-22T11:58:58.976Z,100105.78
2023-07-22T12:04:00.992Z,100099.41
2023-07-22T12:09:02.757Z,100088.88
2023-07-22T12:14:15.145Z,100085.31
2023-07-22T12:19:17.032Z,100071.28
2023-07-22T12:24:18.844Z,100079.53
2023-07-22T12:29:20.551Z,100074.88
2023-07-22T12:34:21.936Z,100069.59
2023-07-22T12:39:23.299Z,100066.47
2023-07-22T12:44:24.698Z,100077.47
2023-07-22T12:49:26.781Z,100060.78
2023-07-22T12:54:28.172Z,100058.06
2023-07-22T12:59:29.594Z,100053.25
2023-07-22T13:04:30.959Z,100047.88
2023-07-22T13:09:32.352Z,100045.63
2023-07-22T13:14:33.699Z,100033.25
2023-07-22T13:19:35.056Z,100039.19
2023-07-22T13:24:36.694Z,100028.75
2023-07-22T13:29:38.197Z,100032.22
2023-07-22T13:34:39.898Z,100025.38
2023-07-22T13:39:41.370Z,100030.09
2023-07-22T13:44:43.780Z,100023.34
2023-07-22T13:49:45.185Z,100015.59
2023-07-22T13:54:46.834Z,100011.69
2023-07-22T13:59:48.228Z,99989.59
2023-07-22T14:04:49.799Z,99993.59
2023-07-22T14:09:51.242Z,99989.78
2023-07-22T14:14:52.684Z,99988.16
2023-07-22T14:19:54.068Z,99980.56
2023-07-22T14:24:55.455Z,99970.41
2023-07-22T14:29:56.875Z,99973.28
2023-07-22T14:34:58.274Z,99971.91
2023-07-22T14:40:00.223Z,99975.75
2023-07-22T14:45:01.640Z,99979.97
2023-07-22T14:50:05.704Z,99981.31
2023-07-22T14:55:07.608Z,99962.22
2023-07-22T15:00:11.876Z,99959.53
2023-07-22T15:05:13.484Z,99962.00
2023-07-22T15:10:16.130Z,99955.06
2023-07-22T15:15:18.932Z,99966.41
2023-07-22T15:20:20.511Z,99957.00
2023-07-22T15:25:21.888Z,99958.03
2023-07-22T15:30:23.349Z,99953.44
2023-07-22T15:35:24.971Z,99942.25
2023-07-22T15:40:26.577Z,99937.75
2023-07-22T15:45:28.062Z,99934.09
2023-07-22T15:50:29.683Z,99926.72
2023-07-22T15:55:31.048Z,99927.41
2023-07-22T16:00:32.623Z,99920.50
2023-07-22T16:05:34.034Z,99929.09
2023-07-22T16:10:35.711Z,99919.84
2023-07-22T16:15:37.456Z,99912.91
2023-07-22T16:20:39.216Z,99909.59
2023-07-22T16:25:40.619Z,99911.88
2023-07-22T16:30:42.005Z,99923.00
2023-07-22T16:35:43.738Z,99903.88
2023-07-22T16:40:45.157Z,99911.69
2023-07-22T16:45:46.618Z,99916.09
2023-07-22T16:50:48.018Z,99908.44
2023-07-22T16:55:49.428Z,99894.19
2023-07-22T17:00:50.878Z,99897.47
2023-07-22T17:05:52.260Z,99889.44
2023-07-22T17:10:54.022Z,99886.97
2023-07-22T17:15:55.596Z,99892.63
2023-07-22T17:20:56.982Z,99888.19
2023-07-22T17:25:58.438Z,99885.91
2023-07-22T17:31:00.830Z,99884.91
2023-07-22T17:36:02.226Z,99886.25
2023-07-22T17:41:03.684Z,99875.28
2023-07-22T17:46:05.813Z,99882.75
2023-07-22T17:51:07.280Z,99884.59
2023-07-22T17:56:08.648Z,99878.72
2023-07-22T18:01:10.044Z,99871.41
2023-07-22T18:06:11.474Z,99877.97
2023-07-22T18:11:12.820Z,99880.34
2023-07-22T18:16:14.187Z,99881.78
2023-07-22T18:21:16.235Z,99875.88
2023-07-22T18:26:17.891Z,99887.88
2023-07-22T18:31:20.970Z,99885.97
2023-07-22T18:36:22.508Z,99894.63
2023-07-22T18:41:24.050Z,99894.56
2023-07-22T18:46:25.593Z,99890.06
2023-07-22T18:51:32.602Z,99892.50
2023-07-22T18:56:33.975Z,99899.47
2023-07-22T19:01:35.426Z,99888.97
2023-07-22T19:06:36.836Z,99896.56
2023-07-22T19:11:38.267Z,99898.56
2023-07-22T19:16:39.928Z,99904.44
2023-07-22T19:21:41.325Z,99904.81
2023-07-22T19:26:42.685Z,99897.34
2023-07-22T19:31:44.218Z,99910.88
2023-07-22T19:36:45.801Z,99916.78
2023-07-22T19:41:47.201Z,99914.63
2023-07-22T19:46:48.657Z,99917.13
2023-07-22T19:51:50.098Z,99919.31
2023-07-22T19:56:51.489Z,99923.47
2023-07-22T20:01:52.917Z,99918.28
2023-07-22T20:06:54.348Z,99918.28
2023-07-22T20:11:55.743Z,99918.84
2023-07-22T20:16:57.163Z,99922.97
2023-07-22T20:21:58.573Z,99924.63
2023-07-22T20:26:59.944Z,99931.50
2023-07-22T20:32:03.637Z,99930.66
2023-07-22T20:37:06.783Z,99931.22
2023-07-22T20:42:08.145Z,99936.19
2023-07-22T20:47:09.602Z,99930.69
2023-07-22T20:52:11.020Z,99934.28
2023-07-22T20:57:12.626Z,99936.78
2023-07-22T21:02:14.260Z,99939.25
2023-07-22T21:07:15.874Z,99927.19
2023-07-22T21:12:17.313Z,99937.34
2023-07-22T21:17:18.694Z,99936.25
2023-07-22T21:22:20.059Z,99934.53
2023-07-22T21:27:26.106Z,99938.13
2023-07-22T21:32:35.883Z,99933.16
2023-07-22T21:37:37.314Z,99940.00
2023-07-22T21:42:38.698Z,99929.84
2023-07-22T21:47:40.183Z,99924.88
2023-07-22T21:52:42.427Z,99922.63
2023-07-22T21:57:46.171Z,99939.56
2023-07-22T22:02:47.662Z,99938.69
2023-07-22T22:07:50.352Z,99930.94
2023-07-22T22:12:51.749Z,99931.19
2023-07-22T22:17:59.998Z,99933.91
2023-07-22T22:23:04.077Z,99932.22
2023-07-22T22:28:05.554Z,99936.28
2023-07-22T22:33:06.981Z,99932.63
2023-07-22T22:38:08.418Z,99934.13
2023-07-22T22:43:09.811Z,99935.69
2023-07-22T22:48:11.172Z,99933.78
2023-07-22T22:53:12.714Z,99928.56
2023-07-22T22:58:14.084Z,99928.84
2023-07-22T23:03:15.635Z,99928.50
2023-07-22T23:08:17.159Z,99928.41
2023-07-22T23:13:18.570Z,99922.38
2023-07-22T23:18:21.174Z,99920.13
2023-07-22T23:23:22.798Z,99922.22
2023-07-22T23:28:24.224Z,99919.97
2023-07-22T23:33:29.258Z,99904.91
2023-07-22T23:38:32.642Z,99903.47
2023-07-22T23:43:34.056Z,99910.41
2023-07-22T23:48:35.460Z,99908.69
2023-07-22T23:53:36.886Z,99905.59
2023-07-22T23:58:38.239Z,99898.19
